sensor_id;sensor_type;location;lat;lon;timestamp;temperature;humidity
15765;DHT22;7983;50.744;7.086;2023-07-13T00:01:51;20.40;76.00
15765;DHT22;7983;50.744;7.086;2023-07-13T00:04:21;20.30;76.10
15765;DHT22;7983;50.744;7.086;2023-07-13T00:06:51;20.30;76.30
15765;DHT22;7983;50.744;7.086;2023-07-13T00:09:20;20.30;76.50
15765;DHT22;7983;50.744;7.086;2023-07-13T00:11:56;20.20;76.60
15765;DHT22;7983;50.744;7.086;2023-07-13T00:14:28;20.20;76.80
15765;DHT22;7983;50.744;7.086;2023-07-13T00:16:57;20.10;76.80
15765;DHT22;7983;50.744;7.086;2023-07-13T00:19:26;20.10;77.00
15765;DHT22;7983;50.744;7.086;2023-07-13T00:21:53;20.00;77.00
15765;DHT22;7983;50.744;7.086;2023-07-13T00:24:21;20.10;77.30
15765;DHT22;7983;50.744;7.086;2023-07-13T00:26:52;20.00;77.30
15765;DHT22;7983;50.744;7.086;2023-07-13T00:29:17;20.00;77.60
15765;DHT22;7983;50.744;7.086;2023-07-13T00:31:43;19.90;77.60
15765;DHT22;7983;50.744;7.086;2023-07-13T00:34:10;19.90;77.70
15765;DHT22;7983;50.744;7.086;2023-07-13T00:36:39;19.80;77.70
15765;DHT22;7983;50.744;7.086;2023-07-13T00:39:07;19.80;78.00
15765;DHT22;7983;50.744;7.086;2023-07-13T00:41:38;19.80;78.20
15765;DHT22;7983;50.744;7.086;2023-07-13T00:44:13;19.70;78.30
15765;DHT22;7983;50.744;7.086;2023-07-13T00:46:39;19.70;78.50
15765;DHT22;7983;50.744;7.086;2023-07-13T00:49:08;19.70;78.60
15765;DHT22;7983;50.744;7.086;2023-07-13T00:51:51;19.60;78.70
15765;DHT22;7983;50.744;7.086;2023-07-13T00:54:23;19.60;79.00
15765;DHT22;7983;50.744;7.086;2023-07-13T00:56:51;19.60;79.10
15765;DHT22;7983;50.744;7.086;2023-07-13T00:59:21;19.50;79.20
15765;DHT22;7983;50.744;7.086;2023-07-13T01:01:48;19.50;79.50
15765;DHT22;7983;50.744;7.086;2023-07-13T01:04:17;19.50;79.60
15765;DHT22;7983;50.744;7.086;2023-07-13T01:06:43;19.40;79.70
15765;DHT22;7983;50.744;7.086;2023-07-13T01:09:10;19.40;79.90
15765;DHT22;7983;50.744;7.086;2023-07-13T01:11:36;19.40;80.10
15765;DHT22;7983;50.744;7.086;2023-07-13T01:14:07;19.40;80.20
15765;DHT22;7983;50.744;7.086;2023-07-13T01:16:36;19.30;80.20
15765;DHT22;7983;50.744;7.086;2023-07-13T01:19:17;19.30;80.40
15765;DHT22;7983;50.744;7.086;2023-07-13T01:21:50;19.30;80.60
15765;DHT22;7983;50.744;7.086;2023-07-13T01:24:16;19.30;80.70
15765;DHT22;7983;50.744;7.086;2023-07-13T01:26:41;19.30;80.80
15765;DHT22;7983;50.744;7.086;2023-07-13T01:29:12;19.30;80.90
15765;DHT22;7983;50.744;7.086;2023-07-13T01:31:37;19.20;81.00
15765;DHT22;7983;50.744;7.086;2023-07-13T01:34:03;19.20;81.20
15765;DHT22;7983;50.744;7.086;2023-07-13T01:36:29;19.10;81.20
15765;DHT22;7983;50.744;7.086;2023-07-13T01:38:57;19.10;81.40
15765;DHT22;7983;50.744;7.086;2023-07-13T01:41:22;19.10;81.60
15765;DHT22;7983;50.744;7.086;2023-07-13T01:43:48;19.00;81.70
15765;DHT22;7983;50.744;7.086;2023-07-13T01:46:14;19.00;81.90
15765;DHT22;7983;50.744;7.086;2023-07-13T01:48:44;19.00;82.00
15765;DHT22;7983;50.744;7.086;2023-07-13T01:51:12;18.90;82.20
15765;DHT22;7983;50.744;7.086;2023-07-13T01:53:42;18.90;82.30
15765;DHT22;7983;50.744;7.086;2023-07-13T01:56:08;18.90;82.60
15765;DHT22;7983;50.744;7.086;2023-07-13T01:58:33;18.90;82.70
15765;DHT22;7983;50.744;7.086;2023-07-13T02:00:59;18.90;82.90
15765;DHT22;7983;50.744;7.086;2023-07-13T02:03:27;18.90;83.10
15765;DHT22;7983;50.744;7.086;2023-07-13T02:05:53;18.90;83.20
15765;DHT22;7983;50.744;7.086;2023-07-13T02:08:23;18.90;83.20
15765;DHT22;7983;50.744;7.086;2023-07-13T02:10:49;18.90;83.50
15765;DHT22;7983;50.744;7.086;2023-07-13T02:13:14;19.00;83.60
15765;DHT22;7983;50.744;7.086;2023-07-13T02:15:44;18.90;83.70
15765;DHT22;7983;50.744;7.086;2023-07-13T02:18:10;19.00;84.00
15765;DHT22;7983;50.744;7.086;2023-07-13T02:20:36;19.00;84.10
15765;DHT22;7983;50.744;7.086;2023-07-13T02:23:01;19.00;84.20
15765;DHT22;7983;50.744;7.086;2023-07-13T02:25:27;19.00;84.20
15765;DHT22;7983;50.744;7.086;2023-07-13T02:27:53;19.00;84.30
15765;DHT22;7983;50.744;7.086;2023-07-13T02:30:18;18.90;84.30
15765;DHT22;7983;50.744;7.086;2023-07-13T02:32:44;18.90;84.30
15765;DHT22;7983;50.744;7.086;2023-07-13T02:35:10;18.90;84.40
15765;DHT22;7983;50.744;7.086;2023-07-13T02:37:35;18.90;84.60
15765;DHT22;7983;50.744;7.086;2023-07-13T02:40:01;18.90;84.70
15765;DHT22;7983;50.744;7.086;2023-07-13T02:42:33;18.80;84.70
15765;DHT22;7983;50.744;7.086;2023-07-13T02:45:01;18.80;84.80
15765;DHT22;7983;50.744;7.086;2023-07-13T02:47:27;18.80;85.60
15765;DHT22;7983;50.744;7.086;2023-07-13T02:49:53;18.80;85.00
15765;DHT22;7983;50.744;7.086;2023-07-13T02:52:19;18.80;85.10
15765;DHT22;7983;50.744;7.086;2023-07-13T02:54:47;18.70;85.20
15765;DHT22;7983;50.744;7.086;2023-07-13T02:57:12;18.70;85.40
15765;DHT22;7983;50.744;7.086;2023-07-13T02:59:38;18.70;85.60
15765;DHT22;7983;50.744;7.086;2023-07-13T03:02:05;18.70;85.80
15765;DHT22;7983;50.744;7.086;2023-07-13T03:04:37;18.70;86.00
15765;DHT22;7983;50.744;7.086;2023-07-13T03:07:04;18.70;86.20
15765;DHT22;7983;50.744;7.086;2023-07-13T03:09:31;18.70;86.90
15765;DHT22;7983;50.744;7.086;2023-07-13T03:11:56;18.70;86.40
15765;DHT22;7983;50.744;7.086;2023-07-13T03:14:23;18.70;86.50
15765;DHT22;7983;50.744;7.086;2023-07-13T03:16:51;18.70;86.60
15765;DHT22;7983;50.744;7.086;2023-07-13T03:19:19;18.70;86.60
15765;DHT22;7983;50.744;7.086;2023-07-13T03:21:45;18.70;86.70
15765;DHT22;7983;50.744;7.086;2023-07-13T03:24:15;18.70;86.80
15765;DHT22;7983;50.744;7.086;2023-07-13T03:26:43;18.70;87.00
15765;DHT22;7983;50.744;7.086;2023-07-13T03:29:09;18.60;86.90
15765;DHT22;7983;50.744;7.086;2023-07-13T03:31:36;18.60;86.90
15765;DHT22;7983;50.744;7.086;2023-07-13T03:34:04;18.60;87.00
15765;DHT22;7983;50.744;7.086;2023-07-13T03:36:31;18.60;87.20
15765;DHT22;7983;50.744;7.086;2023-07-13T03:39:00;18.60;87.20
15765;DHT22;7983;50.744;7.086;2023-07-13T03:41:26;18.60;87.40
15765;DHT22;7983;50.744;7.086;2023-07-13T03:43:54;18.60;87.40
15765;DHT22;7983;50.744;7.086;2023-07-13T03:46:20;18.60;87.50
15765;DHT22;7983;50.744;7.086;2023-07-13T03:48:47;18.60;87.60
15765;DHT22;7983;50.744;7.086;2023-07-13T03:51:15;18.50;87.60
15765;DHT22;7983;50.744;7.086;2023-07-13T03:53:42;18.50;87.80
15765;DHT22;7983;50.744;7.086;2023-07-13T03:56:09;18.50;87.90
15765;DHT22;7983;50.744;7.086;2023-07-13T03:58:39;18.50;88.10
15765;DHT22;7983;50.744;7.086;2023-07-13T04:01:06;18.60;88.30
15765;DHT22;7983;50.744;7.086;2023-07-13T04:03:33;18.50;88.40
15765;DHT22;7983;50.744;7.086;2023-07-13T04:06:06;18.60;88.60
15765;DHT22;7983;50.744;7.086;2023-07-13T04:08:34;18.60;89.40
15765;DHT22;7983;50.744;7.086;2023-07-13T04:11:00;18.50;88.60
15765;DHT22;7983;50.744;7.086;2023-07-13T04:13:29;18.50;88.70
15765;DHT22;7983;50.744;7.086;2023-07-13T04:15:57;18.50;88.90
15765;DHT22;7983;50.744;7.086;2023-07-13T04:18:27;18.50;89.10
15765;DHT22;7983;50.744;7.086;2023-07-13T04:20:53;18.50;89.40
15765;DHT22;7983;50.744;7.086;2023-07-13T04:23:18;18.40;89.40
15765;DHT22;7983;50.744;7.086;2023-07-13T04:25:47;18.40;89.70
15765;DHT22;7983;50.744;7.086;2023-07-13T04:28:15;18.40;89.80
15765;DHT22;7983;50.744;7.086;2023-07-13T04:30:41;18.40;90.00
15765;DHT22;7983;50.744;7.086;2023-07-13T04:33:06;18.40;90.10
15765;DHT22;7983;50.744;7.086;2023-07-13T04:35:34;18.40;90.20
15765;DHT22;7983;50.744;7.086;2023-07-13T04:38:00;18.40;90.30
15765;DHT22;7983;50.744;7.086;2023-07-13T04:40:27;18.40;90.40
15765;DHT22;7983;50.744;7.086;2023-07-13T04:42:56;18.40;90.50
15765;DHT22;7983;50.744;7.086;2023-07-13T04:45:22;18.30;90.60
15765;DHT22;7983;50.744;7.086;2023-07-13T04:47:49;18.40;90.70
15765;DHT22;7983;50.744;7.086;2023-07-13T04:50:15;18.40;90.80
15765;DHT22;7983;50.744;7.086;2023-07-13T04:52:46;18.30;90.90
15765;DHT22;7983;50.744;7.086;2023-07-13T04:55:13;18.30;91.10
15765;DHT22;7983;50.744;7.086;2023-07-13T04:57:40;18.30;91.20
15765;DHT22;7983;50.744;7.086;2023-07-13T05:00:14;18.30;91.30
15765;DHT22;7983;50.744;7.086;2023-07-13T05:02:44;18.40;91.50
15765;DHT22;7983;50.744;7.086;2023-07-13T05:05:12;18.30;91.60
15765;DHT22;7983;50.744;7.086;2023-07-13T05:07:37;18.40;91.70
15765;DHT22;7983;50.744;7.086;2023-07-13T05:10:03;18.40;91.80
15765;DHT22;7983;50.744;7.086;2023-07-13T05:12:31;18.40;92.00
15765;DHT22;7983;50.744;7.086;2023-07-13T05:14:59;18.40;92.10
15765;DHT22;7983;50.744;7.086;2023-07-13T05:17:25;18.40;92.20
15765;DHT22;7983;50.744;7.086;2023-07-13T05:19:50;18.40;92.30
15765;DHT22;7983;50.744;7.086;2023-07-13T05:22:16;18.40;92.50
15765;DHT22;7983;50.744;7.086;2023-07-13T05:24:42;18.50;92.60
15765;DHT22;7983;50.744;7.086;2023-07-13T05:27:07;18.50;92.70
15765;DHT22;7983;50.744;7.086;2023-07-13T05:29:33;18.50;92.80
15765;DHT22;7983;50.744;7.086;2023-07-13T05:31:58;18.60;93.20
15765;DHT22;7983;50.744;7.086;2023-07-13T05:34:24;18.60;93.10
15765;DHT22;7983;50.744;7.086;2023-07-13T05:36:52;18.60;93.20
15765;DHT22;7983;50.744;7.086;2023-07-13T05:39:20;18.70;93.50
15765;DHT22;7983;50.744;7.086;2023-07-13T05:41:46;18.70;93.60
15765;DHT22;7983;50.744;7.086;2023-07-13T05:44:12;18.80;93.60
15765;DHT22;7983;50.744;7.086;2023-07-13T05:46:40;18.80;93.70
15765;DHT22;7983;50.744;7.086;2023-07-13T05:49:10;18.90;93.80
15765;DHT22;7983;50.744;7.086;2023-07-13T05:51:38;19.00;93.90
15765;DHT22;7983;50.744;7.086;2023-07-13T05:54:04;19.00;94.30
15765;DHT22;7983;50.744;7.086;2023-07-13T05:56:29;19.00;94.10
15765;DHT22;7983;50.744;7.086;2023-07-13T05:58:57;19.10;94.10
15765;DHT22;7983;50.744;7.086;2023-07-13T06:01:23;19.10;94.10
15765;DHT22;7983;50.744;7.086;2023-07-13T06:03:49;19.10;94.10
15765;DHT22;7983;50.744;7.086;2023-07-13T06:06:15;19.20;94.30
15765;DHT22;7983;50.744;7.086;2023-07-13T06:08:44;19.20;94.40
15765;DHT22;7983;50.744;7.086;2023-07-13T06:13:40;19.40;94.70
15765;DHT22;7983;50.744;7.086;2023-07-13T06:16:06;19.50;95.10
15765;DHT22;7983;50.744;7.086;2023-07-13T06:18:35;19.50;94.70
15765;DHT22;7983;50.744;7.086;2023-07-13T06:21:09;19.60;94.80
15765;DHT22;7983;50.744;7.086;2023-07-13T06:23:38;19.60;94.90
15765;DHT22;7983;50.744;7.086;2023-07-13T06:26:04;19.70;95.30
15765;DHT22;7983;50.744;7.086;2023-07-13T06:28:33;19.70;95.10
15765;DHT22;7983;50.744;7.086;2023-07-13T06:31:02;19.80;95.00
15765;DHT22;7983;50.744;7.086;2023-07-13T06:33:32;19.90;95.10
15765;DHT22;7983;50.744;7.086;2023-07-13T06:36:02;19.90;95.10
15765;DHT22;7983;50.744;7.086;2023-07-13T06:38:30;20.00;95.10
15765;DHT22;7983;50.744;7.086;2023-07-13T06:40:56;20.00;95.00
15765;DHT22;7983;50.744;7.086;2023-07-13T06:43:24;20.00;94.90
15765;DHT22;7983;50.744;7.086;2023-07-13T06:45:58;20.00;94.80
15765;DHT22;7983;50.744;7.086;2023-07-13T06:48:24;20.10;94.80
15765;DHT22;7983;50.744;7.086;2023-07-13T06:50:50;20.00;94.80
15765;DHT22;7983;50.744;7.086;2023-07-13T06:53:20;20.10;94.90
15765;DHT22;7983;50.744;7.086;2023-07-13T06:55:46;20.10;94.80
15765;DHT22;7983;50.744;7.086;2023-07-13T06:58:16;20.10;94.90
15765;DHT22;7983;50.744;7.086;2023-07-13T07:00:45;20.10;94.90
15765;DHT22;7983;50.744;7.086;2023-07-13T07:03:13;20.10;95.00
15765;DHT22;7983;50.744;7.086;2023-07-13T07:05:39;20.10;95.10
15765;DHT22;7983;50.744;7.086;2023-07-13T07:08:04;20.20;95.20
15765;DHT22;7983;50.744;7.086;2023-07-13T07:10:34;20.30;95.40
15765;DHT22;7983;50.744;7.086;2023-07-13T07:13:01;20.30;95.30
15765;DHT22;7983;50.744;7.086;2023-07-13T07:15:33;20.40;95.40
15765;DHT22;7983;50.744;7.086;2023-07-13T07:17:59;20.50;95.20
15765;DHT22;7983;50.744;7.086;2023-07-13T07:20:27;20.50;95.10
15765;DHT22;7983;50.744;7.086;2023-07-13T07:22:55;20.60;95.20
15765;DHT22;7983;50.744;7.086;2023-07-13T07:25:21;20.60;95.20
15765;DHT22;7983;50.744;7.086;2023-07-13T07:27:46;20.60;95.10
15765;DHT22;7983;50.744;7.086;2023-07-13T07:30:15;20.60;95.10
15765;DHT22;7983;50.744;7.086;2023-07-13T07:32:43;20.70;95.10
15765;DHT22;7983;50.744;7.086;2023-07-13T07:35:11;20.70;95.00
15765;DHT22;7983;50.744;7.086;2023-07-13T07:37:39;20.80;95.10
15765;DHT22;7983;50.744;7.086;2023-07-13T07:40:05;20.80;95.10
15765;DHT22;7983;50.744;7.086;2023-07-13T07:42:36;20.90;95.20
15765;DHT22;7983;50.744;7.086;2023-07-13T07:45:04;20.80;95.00
15765;DHT22;7983;50.744;7.086;2023-07-13T07:47:30;20.90;95.00
15765;DHT22;7983;50.744;7.086;2023-07-13T07:49:58;20.90;95.10
15765;DHT22;7983;50.744;7.086;2023-07-13T07:52:26;20.90;95.10
15765;DHT22;7983;50.744;7.086;2023-07-13T07:54:51;21.00;95.20
15765;DHT22;7983;50.744;7.086;2023-07-13T07:57:17;21.10;95.30
15765;DHT22;7983;50.744;7.086;2023-07-13T07:59:45;21.10;95.20
15765;DHT22;7983;50.744;7.086;2023-07-13T08:02:11;21.20;95.30
15765;DHT22;7983;50.744;7.086;2023-07-13T08:04:37;21.30;95.20
15765;DHT22;7983;50.744;7.086;2023-07-13T08:07:02;21.30;95.10
15765;DHT22;7983;50.744;7.086;2023-07-13T08:09:28;21.40;95.30
15765;DHT22;7983;50.744;7.086;2023-07-13T08:11:54;21.40;95.30
15765;DHT22;7983;50.744;7.086;2023-07-13T08:14:20;21.40;95.20
15765;DHT22;7983;50.744;7.086;2023-07-13T08:16:46;21.50;95.30
15765;DHT22;7983;50.744;7.086;2023-07-13T08:19:11;21.50;95.30
15765;DHT22;7983;50.744;7.086;2023-07-13T08:21:40;21.60;95.20
15765;DHT22;7983;50.744;7.086;2023-07-13T08:24:07;21.60;95.10
15765;DHT22;7983;50.744;7.086;2023-07-13T08:26:36;21.70;95.20
15765;DHT22;7983;50.744;7.086;2023-07-13T08:29:02;21.70;95.20
15765;DHT22;7983;50.744;7.086;2023-07-13T08:31:28;21.80;95.20
15765;DHT22;7983;50.744;7.086;2023-07-13T08:33:54;21.90;95.20
15765;DHT22;7983;50.744;7.086;2023-07-13T08:36:19;22.00;95.30
15765;DHT22;7983;50.744;7.086;2023-07-13T08:38:47;22.10;95.30
15765;DHT22;7983;50.744;7.086;2023-07-13T08:41:17;22.20;95.30
15765;DHT22;7983;50.744;7.086;2023-07-13T08:43:47;22.30;95.10
15765;DHT22;7983;50.744;7.086;2023-07-13T08:46:36;22.40;94.70
15765;DHT22;7983;50.744;7.086;2023-07-13T08:49:14;22.50;94.30
15765;DHT22;7983;50.744;7.086;2023-07-13T08:51:45;22.60;94.50
15765;DHT22;7983;50.744;7.086;2023-07-13T08:56:51;22.80;94.00
15765;DHT22;7983;50.744;7.086;2023-07-13T08:59:25;22.90;94.10
15765;DHT22;7983;50.744;7.086;2023-07-13T09:10:17;23.30;93.10
15765;DHT22;7983;50.744;7.086;2023-07-13T09:15:38;23.40;93.10
15765;DHT22;7983;50.744;7.086;2023-07-13T09:18:08;23.50;91.20
15765;DHT22;7983;50.744;7.086;2023-07-13T09:23:17;23.60;92.40
15765;DHT22;7983;50.744;7.086;2023-07-13T09:25:47;23.70;92.30
15765;DHT22;7983;50.744;7.086;2023-07-13T09:28:59;23.80;92.00
15765;DHT22;7983;50.744;7.086;2023-07-13T09:31:32;23.90;92.00
15765;DHT22;7983;50.744;7.086;2023-07-13T09:34:02;23.90;92.10
15765;DHT22;7983;50.744;7.086;2023-07-13T09:36:32;24.00;92.50
15765;DHT22;7983;50.744;7.086;2023-07-13T09:39:05;24.10;92.20
15765;DHT22;7983;50.744;7.086;2023-07-13T09:44:32;24.10;91.80
15765;DHT22;7983;50.744;7.086;2023-07-13T09:46:59;24.10;91.50
15765;DHT22;7983;50.744;7.086;2023-07-13T09:49:35;24.10;91.60
15765;DHT22;7983;50.744;7.086;2023-07-13T09:52:03;24.20;91.60
15765;DHT22;7983;50.744;7.086;2023-07-13T09:54:33;24.20;91.70
15765;DHT22;7983;50.744;7.086;2023-07-13T09:57:00;24.30;91.90
15765;DHT22;7983;50.744;7.086;2023-07-13T09:59:32;24.40;92.10
15765;DHT22;7983;50.744;7.086;2023-07-13T10:01:58;24.50;92.00
15765;DHT22;7983;50.744;7.086;2023-07-13T10:04:32;24.50;91.70
15765;DHT22;7983;50.744;7.086;2023-07-13T10:07:12;24.60;91.20
15765;DHT22;7983;50.744;7.086;2023-07-13T10:09:41;24.70;91.40
15765;DHT22;7983;50.744;7.086;2023-07-13T10:12:15;24.80;92.10
15765;DHT22;7983;50.744;7.086;2023-07-13T10:14:42;24.90;91.10
15765;DHT22;7983;50.744;7.086;2023-07-13T10:17:14;24.90;91.10
15765;DHT22;7983;50.744;7.086;2023-07-13T10:19:42;24.90;90.80
15765;DHT22;7983;50.744;7.086;2023-07-13T10:24:39;24.90;90.80
15765;DHT22;7983;50.744;7.086;2023-07-13T10:27:20;24.80;90.90
15765;DHT22;7983;50.744;7.086;2023-07-13T10:29:55;24.70;90.50
15765;DHT22;7983;50.744;7.086;2023-07-13T10:32:26;24.70;90.70
15765;DHT22;7983;50.744;7.086;2023-07-13T10:34:52;24.70;90.70
15765;DHT22;7983;50.744;7.086;2023-07-13T10:37:27;24.60;90.90
15765;DHT22;7983;50.744;7.086;2023-07-13T10:39:58;24.60;90.60
15765;DHT22;7983;50.744;7.086;2023-07-13T10:42:37;24.70;91.10
15765;DHT22;7983;50.744;7.086;2023-07-13T10:45:34;24.70;91.00
15765;DHT22;7983;50.744;7.086;2023-07-13T10:48:03;24.90;90.90
15765;DHT22;7983;50.744;7.086;2023-07-13T10:50:30;25.00;90.90
15765;DHT22;7983;50.744;7.086;2023-07-13T10:53:19;25.20;90.70
15765;DHT22;7983;50.744;7.086;2023-07-13T10:58:28;25.50;88.30
15765;DHT22;7983;50.744;7.086;2023-07-13T11:03:36;25.60;85.30
15765;DHT22;7983;50.744;7.086;2023-07-13T11:06:15;25.50;85.40
15765;DHT22;7983;50.744;7.086;2023-07-13T11:11:43;25.50;82.40
15765;DHT22;7983;50.744;7.086;2023-07-13T11:14:28;25.40;82.20
15765;DHT22;7983;50.744;7.086;2023-07-13T11:16:54;25.40;82.50
15765;DHT22;7983;50.744;7.086;2023-07-13T11:27:45;25.30;79.40
15765;DHT22;7983;50.744;7.086;2023-07-13T11:33:23;25.10;78.00
15765;DHT22;7983;50.744;7.086;2023-07-13T11:36:16;25.10;77.60
15765;DHT22;7983;50.744;7.086;2023-07-13T11:39:18;25.00;75.90
15765;DHT22;7983;50.744;7.086;2023-07-13T11:41:52;24.90;76.70
15765;DHT22;7983;50.744;7.086;2023-07-13T11:44:23;24.90;78.60
15765;DHT22;7983;50.744;7.086;2023-07-13T11:46:58;24.90;77.50
15765;DHT22;7983;50.744;7.086;2023-07-13T11:49:30;24.90;76.80
15765;DHT22;7983;50.744;7.086;2023-07-13T11:51:59;24.80;76.90
15765;DHT22;7983;50.744;7.086;2023-07-13T11:54:28;24.70;77.00
15765;DHT22;7983;50.744;7.086;2023-07-13T11:56:59;24.70;76.80
15765;DHT22;7983;50.744;7.086;2023-07-13T11:59:28;24.60;77.00
15765;DHT22;7983;50.744;7.086;2023-07-13T12:01:58;24.50;77.30
15765;DHT22;7983;50.744;7.086;2023-07-13T12:04:28;24.60;76.50
15765;DHT22;7983;50.744;7.086;2023-07-13T12:07:03;24.50;76.00
15765;DHT22;7983;50.744;7.086;2023-07-13T12:09:29;24.50;76.50
15765;DHT22;7983;50.744;7.086;2023-07-13T12:11:58;24.50;77.10
15765;DHT22;7983;50.744;7.086;2023-07-13T12:14:25;24.50;77.50
15765;DHT22;7983;50.744;7.086;2023-07-13T12:16:52;24.60;77.70
15765;DHT22;7983;50.744;7.086;2023-07-13T12:19:28;24.70;77.80
15765;DHT22;7983;50.744;7.086;2023-07-13T12:21:57;24.70;76.90
15765;DHT22;7983;50.744;7.086;2023-07-13T12:24:26;24.70;77.00
15765;DHT22;7983;50.744;7.086;2023-07-13T12:27:04;24.70;76.90
15765;DHT22;7983;50.744;7.086;2023-07-13T12:29:31;24.70;76.20
15765;DHT22;7983;50.744;7.086;2023-07-13T12:31:56;24.70;77.20
15765;DHT22;7983;50.744;7.086;2023-07-13T12:34:26;24.70;77.60
15765;DHT22;7983;50.744;7.086;2023-07-13T12:41:52;24.60;78.10
15765;DHT22;7983;50.744;7.086;2023-07-13T12:44:27;24.60;78.10
15765;DHT22;7983;50.744;7.086;2023-07-13T12:47:02;24.60;78.20
15765;DHT22;7983;50.744;7.086;2023-07-13T12:49:39;24.70;79.00
15765;DHT22;7983;50.744;7.086;2023-07-13T12:52:15;24.80;78.30
15765;DHT22;7983;50.744;7.086;2023-07-13T12:54:40;24.90;78.60
15765;DHT22;7983;50.744;7.086;2023-07-13T12:57:16;25.00;78.50
15765;DHT22;7983;50.744;7.086;2023-07-13T12:59:44;25.10;77.70
15765;DHT22;7983;50.744;7.086;2023-07-13T13:02:33;25.10;78.00
15765;DHT22;7983;50.744;7.086;2023-07-13T13:05:03;25.10;77.50
15765;DHT22;7983;50.744;7.086;2023-07-13T13:07:32;25.10;77.80
15765;DHT22;7983;50.744;7.086;2023-07-13T13:10:00;25.10;78.60
15765;DHT22;7983;50.744;7.086;2023-07-13T13:12:25;25.10;76.80
15765;DHT22;7983;50.744;7.086;2023-07-13T13:14:53;25.10;76.50
15765;DHT22;7983;50.744;7.086;2023-07-13T13:17:23;25.10;76.00
15765;DHT22;7983;50.744;7.086;2023-07-13T13:19:51;25.10;75.20
15765;DHT22;7983;50.744;7.086;2023-07-13T13:22:20;25.10;74.60
15765;DHT22;7983;50.744;7.086;2023-07-13T13:24:51;25.10;74.50
15765;DHT22;7983;50.744;7.086;2023-07-13T13:27:18;25.10;74.90
15765;DHT22;7983;50.744;7.086;2023-07-13T13:29:45;25.10;75.10
15765;DHT22;7983;50.744;7.086;2023-07-13T13:32:14;25.10;74.70
15765;DHT22;7983;50.744;7.086;2023-07-13T13:34:41;25.10;74.70
15765;DHT22;7983;50.744;7.086;2023-07-13T13:37:21;25.20;75.40
15765;DHT22;7983;50.744;7.086;2023-07-13T13:39:47;25.20;74.80
15765;DHT22;7983;50.744;7.086;2023-07-13T13:42:16;25.20;75.00
15765;DHT22;7983;50.744;7.086;2023-07-13T13:44:45;25.20;75.40
15765;DHT22;7983;50.744;7.086;2023-07-13T13:47:29;25.30;75.40
15765;DHT22;7983;50.744;7.086;2023-07-13T13:49:58;25.40;75.30
15765;DHT22;7983;50.744;7.086;2023-07-13T13:52:24;25.60;76.50
15765;DHT22;7983;50.744;7.086;2023-07-13T13:54:51;25.80;76.30
15765;DHT22;7983;50.744;7.086;2023-07-13T13:57:23;26.00;76.40
15765;DHT22;7983;50.744;7.086;2023-07-13T13:59:51;26.20;75.10
15765;DHT22;7983;50.744;7.086;2023-07-13T14:02:29;26.40;74.80
15765;DHT22;7983;50.744;7.086;2023-07-13T14:04:59;26.50;73.50
15765;DHT22;7983;50.744;7.086;2023-07-13T14:07:25;26.60;72.50
15765;DHT22;7983;50.744;7.086;2023-07-13T14:09:58;26.70;72.50
15765;DHT22;7983;50.744;7.086;2023-07-13T14:12:28;26.80;72.50
15765;DHT22;7983;50.744;7.086;2023-07-13T14:14:55;26.90;72.00
15765;DHT22;7983;50.744;7.086;2023-07-13T14:17:27;26.90;71.40
15765;DHT22;7983;50.744;7.086;2023-07-13T14:19:55;26.90;70.20
15765;DHT22;7983;50.744;7.086;2023-07-13T14:22:24;26.90;69.60
15765;DHT22;7983;50.744;7.086;2023-07-13T14:24:57;26.90;68.50
15765;DHT22;7983;50.744;7.086;2023-07-13T14:27:24;26.80;67.70
15765;DHT22;7983;50.744;7.086;2023-07-13T14:29:50;26.70;67.40
15765;DHT22;7983;50.744;7.086;2023-07-13T14:32:18;26.60;66.10
15765;DHT22;7983;50.744;7.086;2023-07-13T14:34:43;26.50;66.80
15765;DHT22;7983;50.744;7.086;2023-07-13T14:37:13;26.50;67.70
15765;DHT22;7983;50.744;7.086;2023-07-13T14:39:42;26.50;68.20
15765;DHT22;7983;50.744;7.086;2023-07-13T14:42:11;26.70;68.80
15765;DHT22;7983;50.744;7.086;2023-07-13T14:44:41;26.80;68.50
15765;DHT22;7983;50.744;7.086;2023-07-13T14:47:08;26.80;67.30
15765;DHT22;7983;50.744;7.086;2023-07-13T14:49:42;26.90;68.20
15765;DHT22;7983;50.744;7.086;2023-07-13T14:52:13;27.00;66.80
15765;DHT22;7983;50.744;7.086;2023-07-13T14:54:40;27.00;67.10
15765;DHT22;7983;50.744;7.086;2023-07-13T14:57:11;27.10;67.60
15765;DHT22;7983;50.744;7.086;2023-07-13T14:59:37;27.10;67.10
15765;DHT22;7983;50.744;7.086;2023-07-13T15:02:09;27.20;67.50
15765;DHT22;7983;50.744;7.086;2023-07-13T15:04:39;27.40;68.20
15765;DHT22;7983;50.744;7.086;2023-07-13T15:07:10;27.50;67.00
15765;DHT22;7983;50.744;7.086;2023-07-13T15:09:38;27.50;66.30
15765;DHT22;7983;50.744;7.086;2023-07-13T15:12:06;27.50;66.50
15765;DHT22;7983;50.744;7.086;2023-07-13T15:14:34;27.50;66.50
15765;DHT22;7983;50.744;7.086;2023-07-13T15:17:03;27.60;66.50
15765;DHT22;7983;50.744;7.086;2023-07-13T15:19:31;27.70;65.70
15765;DHT22;7983;50.744;7.086;2023-07-13T15:21:57;27.80;64.10
15765;DHT22;7983;50.744;7.086;2023-07-13T15:24:25;27.80;64.00
15765;DHT22;7983;50.744;7.086;2023-07-13T15:26:51;27.80;64.10
15765;DHT22;7983;50.744;7.086;2023-07-13T15:29:20;27.80;63.90
15765;DHT22;7983;50.744;7.086;2023-07-13T15:31:48;27.70;63.80
15765;DHT22;7983;50.744;7.086;2023-07-13T15:34:18;27.70;63.50
15765;DHT22;7983;50.744;7.086;2023-07-13T15:36:46;27.70;64.00
15765;DHT22;7983;50.744;7.086;2023-07-13T15:39:16;27.80;64.40
15765;DHT22;7983;50.744;7.086;2023-07-13T15:41:42;27.90;63.50
15765;DHT22;7983;50.744;7.086;2023-07-13T15:44:34;27.90;63.80
15765;DHT22;7983;50.744;7.086;2023-07-13T15:47:03;28.00;62.80
15765;DHT22;7983;50.744;7.086;2023-07-13T15:49:29;28.10;63.20
15765;DHT22;7983;50.744;7.086;2023-07-13T15:51:57;28.10;63.10
15765;DHT22;7983;50.744;7.086;2023-07-13T15:54:23;28.20;63.00
15765;DHT22;7983;50.744;7.086;2023-07-13T15:56:53;28.10;62.60
15765;DHT22;7983;50.744;7.086;2023-07-13T15:59:22;28.10;62.50
15765;DHT22;7983;50.744;7.086;2023-07-13T16:01:51;28.10;62.20
15765;DHT22;7983;50.744;7.086;2023-07-13T16:04:16;28.10;61.70
15765;DHT22;7983;50.744;7.086;2023-07-13T16:06:46;27.90;61.90
15765;DHT22;7983;50.744;7.086;2023-07-13T16:09:22;27.80;61.80
15765;DHT22;7983;50.744;7.086;2023-07-13T16:11:51;27.70;61.70
15765;DHT22;7983;50.744;7.086;2023-07-13T16:14:17;27.50;61.50
15765;DHT22;7983;50.744;7.086;2023-07-13T16:16:43;27.40;61.90
15765;DHT22;7983;50.744;7.086;2023-07-13T16:19:10;27.30;61.90
15765;DHT22;7983;50.744;7.086;2023-07-13T16:21:42;27.20;62.10
15765;DHT22;7983;50.744;7.086;2023-07-13T16:24:17;27.20;61.90
15765;DHT22;7983;50.744;7.086;2023-07-13T16:26:43;27.10;62.30
15765;DHT22;7983;50.744;7.086;2023-07-13T16:29:20;27.00;62.50
15765;DHT22;7983;50.744;7.086;2023-07-13T16:32:13;27.00;62.40
15765;DHT22;7983;50.744;7.086;2023-07-13T16:34:42;26.90;62.50
15765;DHT22;7983;50.744;7.086;2023-07-13T16:39:39;26.70;62.90
15765;DHT22;7983;50.744;7.086;2023-07-13T16:42:09;26.60;63.10
15765;DHT22;7983;50.744;7.086;2023-07-13T16:44:41;26.40;63.70
15765;DHT22;7983;50.744;7.086;2023-07-13T16:47:14;26.30;64.50
15765;DHT22;7983;50.744;7.086;2023-07-13T16:49:47;26.10;65.00